Cross City, FL

10:07 AM EDT on August 01, 2014 (GMT -0400)
Hatchbend on the Suwannee (KFLBRANF5) Elev 20 ft | 29.82 °N, 82.92 °W | Change Station

Current weather conditions updated 12 minutes ago

Clear
Clear
80.7 °F
Feels Like 85 °F
N
0.0
Wind Variable Wind from WSW
Gusts 0.0 mph

Today is forecast to be nearly the same temperature as yesterday.

Today
High -- | Low -- °F
--% Chance of Precip.
Yesterday
High -- | Low -- °F
Precip. -- in
6:52 AM 8:24 PM
Waxing Crescent, 26% visible
Pressure 30.00 in
Visibility 10.0 miles
Clouds Clear
Heat Index 85 °F
Dew Point 72 °F
Humidity 74%
Rainfall 0.00 in
Snow Depth Not available.
UV 5 out of 12
Pollen 4.00 out of 12
Air Quality Not available.
Flu Activity Not available.
METAR K40J 011355Z AUTO 00000KT 10SM CLR 26/20 A3000 RMK AO2 LTG DSNT E

More Conditions Fewer Conditions

Pressure 30.00 in
Visibility 10.0 miles
Clouds Clear
Heat Index 85 °F
Dew Point 72 °F
Humidity 74%
Rainfall 0.00 in
Snow Depth Not available.
UV 5 out of 12
Pollen 4.00 out of 12
Air Quality Not available.
Flu Activity Not available.
METAR K40J 011355Z AUTO 00000KT 10SM CLR 26/20 A3000 RMK AO2 LTG DSNT E

More Conditions Fewer Conditions

10-Day Weather Forecast

Almanac

Astronomy

Aug. 01, 2014 Rise Set
Actual Time 6:52 AM EDT 8:24 PM EDT
Civil Twilight 6:26 AM EDT 8:50 PM EDT
Nautical Twilight 5:55 AM EDT 9:21 PM EDT
Astronomical Twilight 5:22 AM EDT 9:53 PM EDT
Moon 11:47 AM EDT 11:38 PM EDT
Length of Visible Light 14h 24m
Length of Day
13h 32m
Tomorrow will be 1m 19s shorter.
Waxing Crescent, 26% of the Moon is Illuminated
Today
Waxing Crescent
Aug 3
First Quarter
Aug 10
Full
Aug 17
Last Quarter
Aug 25
New

Today's Extremes

State Highs State Lows

Community

WunderPhotos

Upload Photos

1,739,574 photos uploaded!

Nearby

Snow Depth

Station Depth Elevation
No new snow has been reported.

Earthquake Activity

City Distance Mag. Time & Date
No recent earthquake activity has been reported nearby.
Minimum magnitude displayed is 2.5.

Coastal Water Temperatures

Place Temperature
No Stations Reporting

Nearby Weather Stations

Station Location Temp. Heat Index Dew Point Humidity Wind Precip. Elev Updated Type
Hatchbend on the Suwannee, Branford, FL 80.7 °F 85 °F 72 °F 74% WSW  at  0.0 mph 0.00 in / hr 20 ft 9:54 AM EDT Rapid Fire
Horseshoe Beach, Horseshoe Beach, FL 81.6 °F 87 °F 73 °F 75% SSW  at  1.5 mph 0.00 in / hr 10 ft 10:07 AM EDT Rapid Fire
RAWS LOWER SUWANNEE FL, Suwannee, FL 76 °F 77 °F 71 °F 84% North  at  0 mph 0.00 in / hr 15 ft 8:47 AM EDT MADIS
Gilchrist County, .Trenton, FL 83.0 °F 88 °F 71 °F 68% NW  at  6.9 mph 0.00 in / hr 86 ft 10:07 AM EDT Rapid Fire

Show More Stations Show Fewer Stations